createdAt,value
2023-04-03T00:00:11.030Z,101086.61
2023-04-03T00:03:00.027Z,101083.83
2023-04-03T00:05:28.680Z,101087.62
2023-04-03T00:07:58.110Z,101089.45
2023-04-03T00:10:28.535Z,101089.23
2023-04-03T00:12:59.725Z,101091.27
2023-04-03T00:15:29.736Z,101099.43
2023-04-03T00:18:02.760Z,101093.04
2023-04-03T00:20:33.970Z,101094.52
2023-04-03T00:23:03.698Z,101092.08
2023-04-03T00:25:34.083Z,101095.35
2023-04-03T00:28:03.115Z,101093.35
2023-04-03T00:30:32.542Z,101091.77
2023-04-03T00:33:02.265Z,101095.02
2023-04-03T00:35:31.912Z,101096.63
2023-04-03T00:38:02.379Z,101098.40
2023-04-03T00:40:34.975Z,101097.18
2023-04-03T00:43:11.985Z,101096.61
2023-04-03T00:45:42.588Z,101098.63
2023-04-03T00:48:15.188Z,101097.16
2023-04-03T00:50:44.844Z,101097.79
2023-04-03T00:53:18.137Z,101101.48
2023-04-03T00:55:50.492Z,101100.94
2023-04-03T00:58:22.058Z,101100.54
2023-04-03T01:00:58.761Z,101102.19
2023-04-03T01:03:29.097Z,101099.70
2023-04-03T01:05:59.261Z,101099.96
2023-04-03T01:08:28.069Z,101104.20
2023-04-03T01:10:57.218Z,101102.60
2023-04-03T01:13:29.593Z,101103.73
2023-04-03T01:15:59.078Z,101109.51
2023-04-03T01:18:28.675Z,101110.92
2023-04-03T01:20:57.925Z,101115.16
2023-04-03T01:23:32.768Z,101115.90
2023-04-03T01:26:01.496Z,101119.00
2023-04-03T01:28:32.480Z,101118.32
2023-04-03T01:31:21.005Z,101119.81
2023-04-03T01:33:51.145Z,101121.98
2023-04-03T01:36:22.928Z,101121.02
2023-04-03T01:38:52.205Z,101124.41
2023-04-03T01:41:22.623Z,101122.09
2023-04-03T01:43:53.247Z,101123.45
2023-04-03T01:46:22.884Z,101124.67
2023-04-03T01:48:52.791Z,101126.22
2023-04-03T01:51:21.511Z,101127.55
2023-04-03T01:53:50.473Z,101126.92
2023-04-03T01:56:21.569Z,101130.16
2023-04-03T01:58:51.522Z,101129.12
2023-04-03T02:01:22.608Z,101129.70
2023-04-03T02:03:53.064Z,101130.60
2023-04-03T02:06:21.916Z,101133.13
2023-04-03T02:08:51.806Z,101136.14
2023-04-03T02:11:23.473Z,101142.07
2023-04-03T02:13:55.603Z,101142.12
2023-04-03T02:16:25.533Z,101142.77
2023-04-03T02:18:55.168Z,101142.61
2023-04-03T02:21:26.584Z,101143.21
2023-04-03T02:23:59.577Z,101144.83
2023-04-03T02:26:28.359Z,101143.23
2023-04-03T02:28:58.807Z,101143.94
2023-04-03T02:31:28.663Z,101144.52
2023-04-03T02:34:00.556Z,101146.06
2023-04-03T02:36:32.916Z,101147.64
2023-04-03T02:39:05.338Z,101149.57
2023-04-03T02:41:36.837Z,101153.23
2023-04-03T02:44:10.433Z,101156.46
2023-04-03T02:46:40.523Z,101163.64
2023-04-03T02:49:11.755Z,101167.11
2023-04-03T02:51:40.903Z,101168.18
2023-04-03T02:54:10.200Z,101168.16
2023-04-03T02:56:41.671Z,101165.61
2023-04-03T02:59:12.294Z,101167.34
2023-04-03T03:01:41.920Z,101169.20
2023-04-03T03:04:10.781Z,101172.10
2023-04-03T03:06:40.430Z,101169.92
2023-04-03T03:09:09.303Z,101170.54
2023-04-03T03:11:39.551Z,101171.11
2023-04-03T03:14:11.891Z,101170.94
2023-04-03T03:16:41.107Z,101176.36
2023-04-03T03:19:09.802Z,101179.45
2023-04-03T03:21:38.968Z,101179.33
2023-04-03T03:24:09.727Z,101180.42
2023-04-03T03:26:38.428Z,101180.95
2023-04-03T03:29:07.118Z,101178.17
2023-04-03T03:31:37.228Z,101177.65
2023-04-03T03:34:06.807Z,101179.09
2023-04-03T03:36:36.095Z,101178.55
2023-04-03T03:39:05.922Z,101181.66
2023-04-03T03:41:34.940Z,101186.07
2023-04-03T03:44:05.321Z,101185.85
2023-04-03T03:46:34.518Z,101185.42
2023-04-03T03:49:05.718Z,101188.45
2023-04-03T03:51:34.788Z,101191.11
2023-04-03T03:54:05.217Z,101196.72
2023-04-03T03:56:34.528Z,101200.46
2023-04-03T03:59:03.299Z,101206.89
2023-04-03T04:01:33.837Z,101202.73
2023-04-03T04:04:03.083Z,101207.65
2023-04-03T04:06:34.975Z,101210.64
2023-04-03T04:09:07.330Z,101206.58
2023-04-03T04:11:42.090Z,101209.58
2023-04-03T04:14:14.186Z,101209.98
2023-04-03T04:16:44.696Z,101209.02
2023-04-03T04:19:18.687Z,101207.64
2023-04-03T04:21:48.737Z,101209.08
2023-04-03T04:24:20.093Z,101212.89
2023-04-03T04:26:51.557Z,101213.20
2023-04-03T04:29:21.282Z,101219.80
2023-04-03T04:31:54.126Z,101218.23
2023-04-03T04:34:24.543Z,101222.13
2023-04-03T04:36:59.159Z,101224.08
2023-04-03T04:39:31.036Z,101225.75
2023-04-03T04:42:01.527Z,101224.53
2023-04-03T04:44:31.726Z,101227.68
2023-04-03T04:47:03.353Z,101227.41
2023-04-03T04:49:32.833Z,101232.58
2023-04-03T04:52:03.312Z,101234.70
2023-04-03T04:54:34.098Z,101235.88
2023-04-03T04:57:04.274Z,101238.27
2023-04-03T04:59:36.607Z,101242.27
2023-04-03T05:02:06.153Z,101243.12
2023-04-03T05:04:35.564Z,101247.30
2023-04-03T05:07:11.672Z,101242.24
2023-04-03T05:09:43.795Z,101242.45
2023-04-03T05:12:15.169Z,101243.16
2023-04-03T05:14:51.304Z,101247.73
2023-04-03T05:17:21.704Z,101246.31
2023-04-03T05:19:54.663Z,101246.01
2023-04-03T05:22:24.880Z,101248.08
2023-04-03T05:24:54.810Z,101253.32
2023-04-03T05:27:29.539Z,101248.21
2023-04-03T05:30:01.143Z,101250.41
2023-04-03T05:32:30.626Z,101248.52
2023-04-03T05:35:13.169Z,101254.96
2023-04-03T05:37:43.923Z,101254.73
2023-04-03T05:40:16.377Z,101256.70
2023-04-03T05:42:49.174Z,101259.02
2023-04-03T05:45:18.846Z,101261.81
2023-04-03T05:47:48.757Z,101264.58
2023-04-03T05:50:19.841Z,101263.96
2023-04-03T05:52:52.777Z,101263.32
2023-04-03T05:55:23.356Z,101259.21
2023-04-03T05:57:53.572Z,101261.31
2023-04-03T06:00:24.636Z,101262.33
2023-04-03T06:02:58.977Z,101267.58
2023-04-03T06:05:28.318Z,101268.73
2023-04-03T06:07:58.552Z,101268.62
2023-04-03T06:10:31.270Z,101270.38
2023-04-03T06:13:00.433Z,101267.11
2023-04-03T06:15:29.710Z,101265.78
2023-04-03T06:18:00.429Z,101266.75
2023-04-03T06:20:31.041Z,101267.72
2023-04-03T06:23:01.552Z,101265.36
2023-04-03T06:25:32.069Z,101266.45
2023-04-03T06:28:02.677Z,101268.77
2023-04-03T06:30:31.618Z,101276.78
2023-04-03T06:33:01.023Z,101275.09
2023-04-03T06:35:31.725Z,101277.48
2023-04-03T06:38:00.731Z,101281.81
2023-04-03T06:40:29.937Z,101282.34
2023-04-03T06:42:59.338Z,101291.38
2023-04-03T06:45:29.252Z,101294.88
2023-04-03T06:47:58.370Z,101296.98
2023-04-03T06:50:28.724Z,101298.91
2023-04-03T06:52:58.828Z,101300.58
2023-04-03T06:55:28.211Z,101302.44
2023-04-03T06:57:57.023Z,101291.95
2023-04-03T07:00:26.472Z,101290.02
2023-04-03T07:02:58.102Z,101283.89
2023-04-03T07:05:27.993Z,101284.70
2023-04-03T07:07:56.909Z,101285.27
2023-04-03T07:10:25.503Z,101284.89
2023-04-03T07:12:54.733Z,101284.33
2023-04-03T07:15:23.661Z,101285.45
2023-04-03T07:17:52.468Z,101286.40
2023-04-03T07:20:21.324Z,101287.50
2023-04-03T07:22:50.104Z,101289.54
2023-04-03T07:25:18.974Z,101294.59
2023-04-03T07:27:48.936Z,101293.84
2023-04-03T07:30:18.398Z,101289.56
2023-04-03T07:32:47.562Z,101292.90
2023-04-03T07:35:17.760Z,101295.58
2023-04-03T07:37:46.384Z,101297.80
2023-04-03T07:40:15.007Z,101300.34
2023-04-03T07:42:43.645Z,101306.83
2023-04-03T07:45:12.415Z,101305.77
2023-04-03T07:47:41.585Z,101308.27
2023-04-03T07:50:10.153Z,101306.30
2023-04-03T07:52:38.739Z,101307.61
2023-04-03T07:55:08.122Z,101313.52
2023-04-03T07:57:40.316Z,101312.90
2023-04-03T08:00:10.298Z,101313.59
2023-04-03T08:02:41.476Z,101310.09
2023-04-03T08:05:10.537Z,101312.88
2023-04-03T08:07:40.234Z,101309.41
2023-04-03T08:10:09.170Z,101311.91
2023-04-03T08:12:38.564Z,101314.66
2023-04-03T08:15:09.622Z,101313.46
2023-04-03T08:17:38.383Z,101312.82
2023-04-03T08:20:08.274Z,101310.02
2023-04-03T08:22:37.588Z,101311.55
2023-04-03T08:25:07.755Z,101307.71
2023-04-03T08:27:37.568Z,101316.52
2023-04-03T08:30:07.944Z,101321.75
2023-04-03T08:32:39.118Z,101325.35
2023-04-03T08:35:09.073Z,101325.31
2023-04-03T08:37:41.831Z,101325.53
2023-04-03T08:40:15.958Z,101319.36
2023-04-03T08:42:50.644Z,101317.33
2023-04-03T08:45:23.785Z,101317.38
2023-04-03T08:48:07.124Z,101321.80
2023-04-03T08:50:42.093Z,101323.79
2023-04-03T08:53:17.656Z,101332.42
2023-04-03T08:55:46.549Z,101332.05
2023-04-03T08:58:41.680Z,101332.84
2023-04-03T09:01:19.247Z,101335.17
2023-04-03T09:03:47.966Z,101343.34
2023-04-03T09:06:16.589Z,101333.63
2023-04-03T09:08:50.099Z,101329.48
2023-04-03T09:11:28.081Z,101328.90
2023-04-03T09:14:21.731Z,101326.83
2023-04-03T09:17:12.199Z,101323.04
2023-04-03T09:20:01.088Z,101319.55
2023-04-03T09:23:32.319Z,101325.95
2023-04-03T09:26:14.456Z,101325.84
2023-04-03T09:28:51.326Z,101326.58
2023-04-03T09:31:45.309Z,101325.23
2023-04-03T09:34:23.307Z,101324.52
2023-04-03T09:36:55.725Z,101323.54
2023-04-03T09:39:26.126Z,101328.42
2023-04-03T09:42:04.216Z,101324.68
2023-04-03T09:44:39.168Z,101316.06
2023-04-03T09:47:26.997Z,101327.25
2023-04-03T09:50:25.301Z,101330.31
2023-04-03T09:52:55.067Z,101329.63
2023-04-03T09:55:30.965Z,101330.23
2023-04-03T09:58:02.001Z,101329.52
2023-04-03T10:00:31.689Z,101332.23
2023-04-03T10:03:01.923Z,101327.88
2023-04-03T10:05:37.726Z,101332.29
2023-04-03T10:08:12.229Z,101325.05
2023-04-03T10:10:48.474Z,101319.08
2023-04-03T10:13:22.813Z,101319.24
2023-04-03T10:16:00.120Z,101309.23
2023-04-03T10:18:32.431Z,101303.53
2023-04-03T10:21:14.508Z,101302.13
2023-04-03T10:24:13.406Z,101306.75
2023-04-03T10:26:50.815Z,101302.67
2023-04-03T10:29:34.243Z,101300.20
2023-04-03T10:32:09.792Z,101298.79
2023-04-03T10:34:54.683Z,101301.66
2023-04-03T10:37:38.397Z,101296.98
2023-04-03T10:40:16.897Z,101286.07
2023-04-03T10:42:59.034Z,101286.56
2023-04-03T10:45:37.336Z,101289.75
2023-04-03T10:48:07.409Z,101296.87
2023-04-03T10:50:48.852Z,101296.23
2023-04-03T10:53:41.264Z,101284.19
2023-04-03T10:56:11.554Z,101285.23
2023-04-03T10:58:48.574Z,101292.48
2023-04-03T11:01:20.567Z,101287.48
2023-04-03T11:03:58.920Z,101287.02
2023-04-03T11:06:37.427Z,101280.63
2023-04-03T11:09:24.546Z,101275.54
2023-04-03T11:12:08.207Z,101271.65
2023-04-03T11:14:40.078Z,101284.06
2023-04-03T11:17:38.518Z,101282.61
2023-04-03T11:20:08.492Z,101280.88
2023-04-03T11:23:03.083Z,101291.67
2023-04-03T11:25:38.513Z,101285.90
2023-04-03T11:28:12.492Z,101277.15
2023-04-03T11:31:04.271Z,101283.32
2023-04-03T11:33:43.918Z,101278.66
2023-04-03T11:36:25.571Z,101269.64
2023-04-03T11:39:00.548Z,101265.39
2023-04-03T11:41:31.135Z,101272.12
2023-04-03T11:44:03.778Z,101276.70
2023-04-03T11:46:52.420Z,101274.33
2023-04-03T11:49:41.417Z,101271.14
2023-04-03T11:52:12.468Z,101273.63
2023-04-03T11:54:44.921Z,101268.08
2023-04-03T11:57:33.266Z,101261.01
2023-04-03T12:00:25.144Z,101255.46
2023-04-03T12:02:56.234Z,101260.02
2023-04-03T12:05:30.083Z,101249.27
2023-04-03T12:08:18.763Z,101249.60
2023-04-03T12:11:07.832Z,101251.61
2023-04-03T12:13:37.941Z,101256.80
2023-04-03T12:16:11.087Z,101254.80
2023-04-03T12:18:46.370Z,101246.70
2023-04-03T12:21:24.620Z,101247.19
2023-04-03T12:23:59.914Z,101247.63
2023-04-03T12:26:42.055Z,101247.00
2023-04-03T12:29:17.377Z,101251.64
2023-04-03T12:32:05.125Z,101258.29
2023-04-03T12:34:57.966Z,101251.84
2023-04-03T12:37:45.623Z,101237.39
2023-04-03T12:40:39.455Z,101239.08
2023-04-03T12:43:29.118Z,101238.24
2023-04-03T12:46:06.294Z,101236.93
2023-04-03T12:48:48.806Z,101239.78
2023-04-03T12:51:37.207Z,101237.42
2023-04-03T12:54:16.076Z,101237.13
2023-04-03T12:56:47.485Z,101238.92
2023-04-03T12:59:23.506Z,101237.98
2023-04-03T13:01:59.605Z,101233.96
2023-04-03T13:04:29.525Z,101226.23
2023-04-03T13:06:58.880Z,101230.49
2023-04-03T13:09:30.789Z,101232.91
2023-04-03T13:12:06.640Z,101226.77
2023-04-03T13:14:40.107Z,101233.96
2023-04-03T13:17:12.001Z,101239.96
2023-04-03T13:19:43.456Z,101241.02
2023-04-03T13:23:02.888Z,101238.56
2023-04-03T13:25:36.748Z,101233.84
2023-04-03T13:28:13.804Z,101235.45
2023-04-03T13:30:55.769Z,101242.58
2023-04-03T13:33:27.239Z,101243.02
2023-04-03T13:36:07.528Z,101237.96
2023-04-03T13:38:38.005Z,101239.80
2023-04-03T13:44:23.105Z,101230.98
2023-04-03T13:46:53.403Z,101236.04
2023-04-03T13:49:29.591Z,101241.73
2023-04-03T13:52:07.321Z,101237.81
2023-04-03T13:54:40.338Z,101230.16
2023-04-03T13:57:14.994Z,101224.92
2023-04-03T13:59:46.376Z,101235.55
2023-04-03T14:02:34.991Z,101241.94
2023-04-03T14:05:07.050Z,101237.70
2023-04-03T14:07:36.782Z,101243.27
2023-04-03T14:10:08.994Z,101234.95
2023-04-03T14:12:40.541Z,101236.98
2023-04-03T14:15:17.421Z,101238.31
2023-04-03T14:17:46.364Z,101233.46
2023-04-03T14:20:21.050Z,101229.13
2023-04-03T14:22:52.255Z,101233.81
2023-04-03T14:25:21.920Z,101240.63
2023-04-03T14:27:52.212Z,101236.67
2023-04-03T14:30:26.169Z,101227.45
2023-04-03T14:32:55.906Z,101241.92
2023-04-03T14:35:25.883Z,101240.34
2023-04-03T14:37:55.443Z,101241.88
2023-04-03T14:40:26.629Z,101237.46
2023-04-03T14:42:56.687Z,101240.13
2023-04-03T14:45:25.885Z,101243.66
2023-04-03T14:47:56.579Z,101243.61
2023-04-03T14:50:28.406Z,101247.05
2023-04-03T14:52:59.209Z,101252.52
2023-04-03T14:55:29.899Z,101254.75
2023-04-03T14:57:58.860Z,101251.38
2023-04-03T15:00:29.071Z,101246.48
2023-04-03T15:03:17.343Z,101249.49
2023-04-03T15:05:48.280Z,101249.16
2023-04-03T15:08:22.778Z,101248.45
2023-04-03T15:10:54.054Z,101250.77
2023-04-03T15:13:24.310Z,101250.48
2023-04-03T15:15:54.439Z,101250.77
2023-04-03T15:18:30.385Z,101249.52
2023-04-03T15:21:00.312Z,101243.34
2023-04-03T15:23:31.413Z,101242.41
2023-04-03T15:26:00.635Z,101245.69
2023-04-03T15:28:39.586Z,101245.13
2023-04-03T15:31:09.043Z,101246.61
2023-04-03T15:33:38.414Z,101248.96
2023-04-03T15:36:17.201Z,101247.58
2023-04-03T15:38:56.331Z,101250.88
2023-04-03T15:41:27.229Z,101251.02
2023-04-03T15:43:57.900Z,101254.66
2023-04-03T15:46:26.619Z,101257.48
2023-04-03T15:48:59.527Z,101257.54
2023-04-03T15:51:31.637Z,101261.05
2023-04-03T15:54:00.497Z,101260.50
2023-04-03T15:56:29.886Z,101260.77
2023-04-03T15:59:03.403Z,101262.02
2023-04-03T16:01:37.385Z,101262.00
2023-04-03T16:04:08.970Z,101264.02
2023-04-03T16:06:39.978Z,101257.63
2023-04-03T16:09:09.478Z,101261.10
2023-04-03T16:11:40.643Z,101265.03
2023-04-03T16:14:09.915Z,101270.70
2023-04-03T16:16:40.188Z,101265.55
2023-04-03T16:19:11.564Z,101268.84
2023-04-03T16:21:42.388Z,101274.60
2023-04-03T16:24:37.258Z,101282.95
2023-04-03T16:27:07.780Z,101280.66
2023-04-03T16:29:37.717Z,101283.88
2023-04-03T16:32:06.932Z,101284.89
2023-04-03T16:34:36.120Z,101284.84
2023-04-03T16:37:06.637Z,101285.25
2023-04-03T16:39:36.779Z,101286.39
2023-04-03T16:42:08.422Z,101285.44
2023-04-03T16:44:39.601Z,101282.39
2023-04-03T16:47:11.379Z,101285.82
2023-04-03T16:49:41.516Z,101284.32
2023-04-03T16:52:12.653Z,101287.55
2023-04-03T16:54:42.901Z,101285.96
2023-04-03T16:57:12.660Z,101285.84
2023-04-03T16:59:43.269Z,101287.59
2023-04-03T17:02:13.270Z,101288.38
2023-04-03T17:04:43.358Z,101286.65
2023-04-03T17:07:15.571Z,101293.90
2023-04-03T17:09:45.484Z,101291.04
2023-04-03T17:12:15.900Z,101290.02
2023-04-03T17:14:45.176Z,101293.34
2023-04-03T17:17:15.501Z,101296.14
2023-04-03T17:19:45.612Z,101297.24
2023-04-03T17:22:17.384Z,101298.88
2023-04-03T17:24:48.442Z,101305.27
2023-04-03T17:27:17.892Z,101307.27
2023-04-03T17:29:51.926Z,101307.48
2023-04-03T17:32:23.823Z,101310.43
2023-04-03T17:34:54.887Z,101302.59
2023-04-03T17:37:26.268Z,101308.41
2023-04-03T17:39:58.818Z,101308.81
2023-04-03T17:42:32.005Z,101312.23
2023-04-03T17:45:05.580Z,101318.36
2023-04-03T17:47:35.898Z,101317.43
2023-04-03T17:50:08.270Z,101320.86
2023-04-03T17:52:39.852Z,101324.56
2023-04-03T17:55:10.457Z,101321.60
2023-04-03T17:57:42.261Z,101316.91
2023-04-03T18:00:13.970Z,101318.31
2023-04-03T18:02:45.112Z,101316.59
2023-04-03T18:05:17.449Z,101312.45
2023-04-03T18:07:51.091Z,101311.91
2023-04-03T18:10:24.363Z,101311.38
2023-04-03T18:12:57.771Z,101313.10
2023-04-03T18:15:30.327Z,101316.20
2023-04-03T18:18:04.437Z,101314.52
2023-04-03T18:20:34.846Z,101315.25
2023-04-03T18:23:04.674Z,101315.89
2023-04-03T18:25:38.694Z,101315.77
2023-04-03T18:28:10.336Z,101317.17
2023-04-03T18:30:43.883Z,101318.92
2023-04-03T18:33:14.155Z,101318.19
2023-04-03T18:35:51.865Z,101314.39
2023-04-03T18:38:22.650Z,101316.76
2023-04-03T18:40:55.810Z,101312.83
2023-04-03T18:43:28.518Z,101311.09
2023-04-03T18:45:59.187Z,101312.55
2023-04-03T18:48:32.019Z,101313.40
2023-04-03T18:51:06.694Z,101314.11
2023-04-03T18:53:37.781Z,101316.19
2023-04-03T18:56:09.861Z,101316.95
2023-04-03T18:58:43.449Z,101309.64
2023-04-03T19:01:13.768Z,101315.45
2023-04-03T19:03:49.541Z,101316.05
2023-04-03T19:06:23.424Z,101310.57
2023-04-03T19:09:03.090Z,101313.48
2023-04-03T19:11:40.205Z,101314.50
2023-04-03T19:14:16.749Z,101317.01
2023-04-03T19:16:50.088Z,101317.08
2023-04-03T19:19:25.110Z,101319.77
2023-04-03T19:21:57.262Z,101320.61
2023-04-03T19:24:31.807Z,101324.75
2023-04-03T19:27:02.434Z,101319.14
2023-04-03T19:29:34.170Z,101317.90
2023-04-03T19:32:05.658Z,101321.80
2023-04-03T19:34:38.178Z,101321.63
2023-04-03T19:37:11.443Z,101326.55
2023-04-03T19:39:43.392Z,101323.14
2023-04-03T19:42:20.120Z,101326.48
2023-04-03T19:44:52.911Z,101324.78
2023-04-03T19:47:24.762Z,101326.34
2023-04-03T19:49:55.835Z,101323.61
2023-04-03T19:52:27.862Z,101329.00
2023-04-03T19:54:58.504Z,101329.48
2023-04-03T19:57:33.751Z,101324.41
2023-04-03T20:00:08.543Z,101323.30
2023-04-03T20:02:42.663Z,101323.29
2023-04-03T20:05:14.225Z,101324.60
2023-04-03T20:07:49.201Z,101320.17
2023-04-03T20:10:21.085Z,101326.91
2023-04-03T20:12:51.788Z,101322.20
2023-04-03T20:15:22.231Z,101319.02
2023-04-03T20:17:53.995Z,101323.02
2023-04-03T20:20:26.129Z,101318.95
2023-04-03T20:23:35.746Z,101316.77
2023-04-03T20:26:15.281Z,101313.91
2023-04-03T20:28:45.549Z,101311.11
2023-04-03T20:31:17.068Z,101312.48
2023-04-03T20:33:47.094Z,101313.17
2023-04-03T20:36:18.686Z,101313.11
2023-04-03T20:38:49.714Z,101315.38
2023-04-03T20:41:20.941Z,101315.92
2023-04-03T20:43:50.666Z,101313.99
2023-04-03T20:46:21.276Z,101309.17
2023-04-03T20:48:54.411Z,101310.16
2023-04-03T20:51:24.765Z,101308.36
2023-04-03T20:53:55.828Z,101306.14
2023-04-03T20:56:25.912Z,101309.83
2023-04-03T20:58:56.990Z,101311.11
2023-04-03T21:01:27.793Z,101310.48
2023-04-03T21:04:01.485Z,101310.21
2023-04-03T21:06:50.628Z,101310.33
2023-04-03T21:09:38.106Z,101306.87
2023-04-03T21:12:25.709Z,101310.89
2023-04-03T21:15:14.184Z,101308.22
2023-04-03T21:17:57.877Z,101306.55
2023-04-03T21:20:27.634Z,101307.27
2023-04-03T21:23:04.701Z,101310.23
2023-04-03T21:25:33.558Z,101311.61
2023-04-03T21:28:03.327Z,101310.60
2023-04-03T21:30:34.809Z,101311.39
2023-04-03T21:33:05.437Z,101307.79
2023-04-03T21:35:35.783Z,101305.16
2023-04-03T21:38:05.296Z,101305.19
2023-04-03T21:40:34.158Z,101301.96
2023-04-03T21:43:05.550Z,101298.95
2023-04-03T21:45:39.652Z,101302.67
2023-04-03T21:48:10.604Z,101300.41
2023-04-03T21:50:40.460Z,101301.87
2023-04-03T21:53:09.301Z,101301.42
2023-04-03T21:55:40.143Z,101299.67
2023-04-03T21:58:10.602Z,101303.61
2023-04-03T22:00:39.714Z,101302.69
2023-04-03T22:03:10.717Z,101300.64
2023-04-03T22:05:40.254Z,101297.60
2023-04-03T22:08:08.837Z,101298.67
2023-04-03T22:10:41.590Z,101296.50
2023-04-03T22:13:10.843Z,101293.72
2023-04-03T22:15:47.829Z,101297.27
2023-04-03T22:18:17.117Z,101295.88
2023-04-03T22:20:47.428Z,101295.70
2023-04-03T22:23:17.046Z,101292.88
2023-04-03T22:26:00.453Z,101290.14
2023-04-03T22:28:30.140Z,101289.66
2023-04-03T22:31:16.819Z,101290.38
2023-04-03T22:33:46.467Z,101291.42
2023-04-03T22:36:15.980Z,101290.13
2023-04-03T22:38:49.138Z,101292.23
2023-04-03T22:41:17.826Z,101291.55
2023-04-03T22:43:49.374Z,101288.00
2023-04-03T22:46:18.451Z,101286.23
2023-04-03T22:48:48.930Z,101282.17
2023-04-03T22:51:17.533Z,101279.02
2023-04-03T22:53:47.775Z,101277.28
2023-04-03T22:56:16.489Z,101278.77
2023-04-03T22:58:48.498Z,101272.54
2023-04-03T23:01:17.707Z,101274.27
2023-04-03T23:03:48.924Z,101272.16
2023-04-03T23:06:17.950Z,101267.52
2023-04-03T23:08:46.719Z,101266.79
2023-04-03T23:11:15.340Z,101266.98
2023-04-03T23:13:44.355Z,101269.17
2023-04-03T23:16:13.666Z,101269.27
2023-04-03T23:18:43.982Z,101269.19
2023-04-03T23:21:14.527Z,101266.48
2023-04-03T23:23:49.628Z,101267.04
2023-04-03T23:26:18.529Z,101264.87
2023-04-03T23:28:47.276Z,101265.00
2023-04-03T23:31:17.080Z,101261.39
2023-04-03T23:33:45.912Z,101261.98
2023-04-03T23:36:18.785Z,101259.91
2023-04-03T23:38:47.425Z,101256.45
2023-04-03T23:41:15.884Z,101256.89
2023-04-03T23:43:46.879Z,101253.90
2023-04-03T23:46:15.683Z,101256.70
2023-04-03T23:48:44.402Z,101257.36
2023-04-03T23:51:14.321Z,101248.58
2023-04-03T23:53:45.015Z,101248.30
2023-04-03T23:56:13.728Z,101243.20
2023-04-03T23:58:44.196Z,101244.65
